createdAt,value
2022-12-04T00:01:57.985Z,24.20
2022-12-04T00:04:26.400Z,28.17
2022-12-04T00:06:58.976Z,26.27
2022-12-04T00:09:27.771Z,27.90
2022-12-04T00:11:56.052Z,26.20
2022-12-04T00:14:25.684Z,25.47
2022-12-04T00:16:54.056Z,26.30
2022-12-04T00:19:22.428Z,26.83
2022-12-04T00:21:51.841Z,25.80
2022-12-04T00:24:20.132Z,32.40
2022-12-04T00:26:48.393Z,34.10
2022-12-04T00:29:16.649Z,32.03
2022-12-04T00:31:46.876Z,27.70
2022-12-04T00:34:15.327Z,29.10
2022-12-04T00:36:43.554Z,34.47
2022-12-04T00:39:11.805Z,29.43
2022-12-04T00:41:40.103Z,26.70
2022-12-04T00:44:08.371Z,28.27
2022-12-04T00:46:36.656Z,26.17
2022-12-04T00:49:06.287Z,26.63
2022-12-04T00:51:34.587Z,29.87
2022-12-04T00:54:02.866Z,25.87
2022-12-04T00:56:31.221Z,26.73
2022-12-04T00:59:01.276Z,28.90
2022-12-04T01:01:30.669Z,32.93
2022-12-04T01:03:59.310Z,28.03
2022-12-04T01:06:31.002Z,30.40
2022-12-04T01:09:01.776Z,30.27
2022-12-04T01:11:31.531Z,27.50
2022-12-04T01:14:01.147Z,31.83
2022-12-04T01:16:33.259Z,41.37
2022-12-04T01:19:01.926Z,32.43
2022-12-04T01:21:31.778Z,39.30
2022-12-04T01:24:00.272Z,35.33
2022-12-04T01:26:29.059Z,30.60
2022-12-04T01:28:57.391Z,31.13
2022-12-04T01:31:26.438Z,32.20
2022-12-04T01:33:55.159Z,29.07
2022-12-04T01:36:27.255Z,36.03
2022-12-04T01:38:57.908Z,28.40
2022-12-04T01:41:29.459Z,29.63
2022-12-04T01:44:17.367Z,29.70
2022-12-04T01:46:47.999Z,27.40
2022-12-04T01:49:22.640Z,30.43
2022-12-04T01:51:55.686Z,34.63
2022-12-04T01:54:30.644Z,30.27
2022-12-04T01:57:04.778Z,26.57
2022-12-04T01:59:39.027Z,25.17
2022-12-04T02:02:12.612Z,30.27
2022-12-04T02:04:42.836Z,38.20
2022-12-04T02:07:12.204Z,33.53
2022-12-04T02:09:43.438Z,31.30
2022-12-04T02:12:21.756Z,31.07
2022-12-04T02:14:59.172Z,29.43
2022-12-04T02:17:34.240Z,28.50
2022-12-04T02:20:16.925Z,30.63
2022-12-04T02:23:23.496Z,31.60
2022-12-04T02:26:03.102Z,30.03
2022-12-04T02:28:41.199Z,28.40
2022-12-04T02:31:16.675Z,28.77
2022-12-04T02:33:51.372Z,27.73
2022-12-04T02:36:24.163Z,31.47
2022-12-04T02:38:57.784Z,29.07
2022-12-04T02:41:32.764Z,23.90
2022-12-04T02:44:08.502Z,29.97
2022-12-04T02:46:41.579Z,28.93
2022-12-04T02:49:16.821Z,33.17
2022-12-04T02:51:47.301Z,33.77
2022-12-04T02:54:28.779Z,38.00
2022-12-04T02:57:00.144Z,31.63
2022-12-04T02:59:34.626Z,32.57
2022-12-04T03:02:11.114Z,30.80
2022-12-04T03:04:41.313Z,24.90
2022-12-04T03:07:16.463Z,26.60
2022-12-04T03:09:49.066Z,27.20
2022-12-04T03:12:23.344Z,23.93
2022-12-04T03:15:00.652Z,27.33
2022-12-04T03:17:35.356Z,32.67
2022-12-04T03:20:10.723Z,33.47
2022-12-04T03:22:43.820Z,33.13
2022-12-04T03:25:13.869Z,30.37
2022-12-04T03:27:52.133Z,27.20
2022-12-04T03:30:24.319Z,27.90
2022-12-04T03:32:58.089Z,27.83
2022-12-04T03:35:32.356Z,26.77
2022-12-04T03:38:05.571Z,32.37
2022-12-04T03:40:38.864Z,38.33
2022-12-04T03:43:16.103Z,29.03
2022-12-04T03:45:51.246Z,32.20
2022-12-04T03:48:24.046Z,25.97
2022-12-04T03:50:57.709Z,26.63
2022-12-04T03:53:34.145Z,34.17
2022-12-04T03:56:11.232Z,24.57
2022-12-04T03:58:44.847Z,29.47
2022-12-04T04:01:16.851Z,27.33
2022-12-04T04:03:49.722Z,27.10
2022-12-04T04:06:23.230Z,19.80
2022-12-04T04:08:55.170Z,21.27
2022-12-04T04:11:30.019Z,21.33
2022-12-04T04:14:21.779Z,23.53
2022-12-04T04:17:15.786Z,23.23
2022-12-04T04:20:06.579Z,21.33
2022-12-04T04:22:56.205Z,20.13
2022-12-04T04:25:28.700Z,24.67
2022-12-04T04:27:59.492Z,27.57
2022-12-04T04:30:28.810Z,25.50
2022-12-04T04:33:07.630Z,23.00
2022-12-04T04:35:44.159Z,22.40
2022-12-04T04:38:21.084Z,23.10
2022-12-04T04:40:57.186Z,24.23
2022-12-04T04:43:31.070Z,25.97
2022-12-04T04:46:05.256Z,26.70
2022-12-04T04:48:37.970Z,25.07
2022-12-04T04:51:07.180Z,20.57
2022-12-04T04:53:41.722Z,23.50
2022-12-04T04:56:10.712Z,21.60
2022-12-04T04:58:39.006Z,28.87
2022-12-04T05:01:10.593Z,21.77
2022-12-04T05:03:40.769Z,26.00
2022-12-04T05:06:09.484Z,19.67
2022-12-04T05:08:38.132Z,32.07
2022-12-04T05:11:07.396Z,27.30
2022-12-04T05:13:35.974Z,22.93
2022-12-04T05:16:07.933Z,27.27
2022-12-04T05:18:37.024Z,21.37
2022-12-04T05:21:07.940Z,26.03
2022-12-04T05:23:36.295Z,33.00
2022-12-04T05:26:06.683Z,28.47
2022-12-04T05:28:34.900Z,27.97
2022-12-04T05:31:04.827Z,19.90
2022-12-04T05:33:33.114Z,22.00
2022-12-04T05:36:03.719Z,20.07
2022-12-04T05:38:33.702Z,21.83
2022-12-04T05:41:03.450Z,21.57
2022-12-04T05:43:32.068Z,21.87
2022-12-04T05:46:02.905Z,18.97
2022-12-04T05:48:31.340Z,15.80
2022-12-04T05:50:59.731Z,18.03
2022-12-04T05:53:28.019Z,17.73
2022-12-04T05:55:59.612Z,18.33
2022-12-04T05:58:28.632Z,20.20
2022-12-04T06:00:57.311Z,20.67
2022-12-04T06:03:25.641Z,18.93
2022-12-04T06:05:53.999Z,21.93
2022-12-04T06:08:22.419Z,20.03
2022-12-04T06:10:50.790Z,19.03
2022-12-04T06:13:20.346Z,17.67
2022-12-04T06:15:48.575Z,22.27
2022-12-04T06:18:16.844Z,25.90
2022-12-04T06:20:45.205Z,21.43
2022-12-04T06:23:13.560Z,24.10
2022-12-04T06:25:41.783Z,27.50
2022-12-04T06:28:09.977Z,22.63
2022-12-04T06:30:39.592Z,29.43
2022-12-04T06:33:07.839Z,22.33
2022-12-04T06:35:36.133Z,23.03
2022-12-04T06:38:04.437Z,25.63
2022-12-04T06:40:32.888Z,48.40
2022-12-04T06:43:01.120Z,30.70
2022-12-04T06:45:29.393Z,17.50
2022-12-04T06:47:59.045Z,18.50
2022-12-04T06:50:27.295Z,22.30
2022-12-04T06:52:55.553Z,34.73
2022-12-04T06:55:24.220Z,21.57
2022-12-04T06:57:52.509Z,28.33
2022-12-04T07:00:21.054Z,41.23
2022-12-04T07:02:49.343Z,43.70
2022-12-04T07:05:18.937Z,19.57
2022-12-04T07:07:47.235Z,24.13
2022-12-04T07:10:15.465Z,38.00
2022-12-04T07:12:43.661Z,50.23
2022-12-04T07:15:12.396Z,48.13
2022-12-04T07:17:40.671Z,32.37
2022-12-04T07:20:11.130Z,58.70
2022-12-04T07:22:40.737Z,24.13
2022-12-04T07:25:10.074Z,43.27
2022-12-04T07:27:38.486Z,19.53
2022-12-04T07:30:14.169Z,34.70
2022-12-04T07:32:43.973Z,21.60
2022-12-04T07:35:12.180Z,28.70
2022-12-04T07:37:41.778Z,19.57
2022-12-04T07:40:11.118Z,17.43
2022-12-04T07:42:39.363Z,18.10
2022-12-04T07:45:08.944Z,23.80
2022-12-04T07:47:37.510Z,18.37
2022-12-04T07:50:07.700Z,17.27
2022-12-04T07:52:37.962Z,27.07
2022-12-04T07:55:09.339Z,29.13
2022-12-04T07:57:37.554Z,26.87
2022-12-04T08:00:07.214Z,24.87
2022-12-04T08:02:35.508Z,21.60
2022-12-04T08:05:03.849Z,13.83
2022-12-04T08:07:33.257Z,12.60
2022-12-04T08:10:01.568Z,14.93
2022-12-04T08:12:33.623Z,12.63
2022-12-04T08:15:01.989Z,14.17
2022-12-04T08:17:30.395Z,12.93
2022-12-04T08:19:58.972Z,14.03
2022-12-04T08:22:27.486Z,17.40
2022-12-04T08:24:55.756Z,15.63
2022-12-04T08:27:24.111Z,11.10
2022-12-04T08:29:54.028Z,14.33
2022-12-04T08:32:22.440Z,15.63
2022-12-04T08:34:55.664Z,13.10
2022-12-04T08:37:24.257Z,15.23
2022-12-04T08:39:52.910Z,14.30
2022-12-04T08:42:21.423Z,14.57
2022-12-04T08:44:49.691Z,12.73
2022-12-04T08:47:19.461Z,18.13
2022-12-04T08:49:47.781Z,13.50
2022-12-04T08:52:16.094Z,13.17
2022-12-04T08:54:44.397Z,15.13
2022-12-04T08:57:12.815Z,15.03
2022-12-04T08:59:41.109Z,13.80
2022-12-04T09:02:10.542Z,14.37
2022-12-04T09:04:40.303Z,15.63
2022-12-04T09:07:08.660Z,14.40
2022-12-04T09:09:36.999Z,13.57
2022-12-04T09:12:05.460Z,16.73
2022-12-04T09:14:33.738Z,19.70
2022-12-04T09:17:02.056Z,15.57
2022-12-04T09:19:32.025Z,16.67
2022-12-04T09:22:01.653Z,15.00
2022-12-04T09:24:31.303Z,15.43
2022-12-04T09:26:59.639Z,16.43
2022-12-04T09:29:27.864Z,17.37
2022-12-04T09:31:56.076Z,15.60
2022-12-04T09:34:24.287Z,15.40
2022-12-04T09:36:52.503Z,16.77
2022-12-04T09:39:22.111Z,14.53
2022-12-04T09:42:33.355Z,16.63
2022-12-04T09:45:10.297Z,13.77
2022-12-04T09:47:43.481Z,13.30
2022-12-04T09:50:18.224Z,18.10
2022-12-04T09:52:52.784Z,16.70
2022-12-04T09:55:27.668Z,13.17
2022-12-04T09:58:02.456Z,16.73
2022-12-04T10:00:33.708Z,15.40
2022-12-04T10:03:05.826Z,15.00
2022-12-04T10:05:49.791Z,18.53
2022-12-04T10:08:22.849Z,18.53
2022-12-04T10:11:03.639Z,17.73
2022-12-04T10:13:54.806Z,21.17
2022-12-04T10:16:29.078Z,19.23
2022-12-04T10:19:09.383Z,17.60
2022-12-04T10:21:53.345Z,19.33
2022-12-04T10:24:36.247Z,21.00
2022-12-04T10:27:18.180Z,20.97
2022-12-04T10:29:52.804Z,23.03
2022-12-04T10:32:25.588Z,26.40
2022-12-04T10:34:57.965Z,27.00
2022-12-04T10:37:27.895Z,15.97
2022-12-04T10:40:02.744Z,19.97
2022-12-04T10:42:39.973Z,15.93
2022-12-04T10:45:10.666Z,15.17
2022-12-04T10:47:40.724Z,14.50
2022-12-04T10:50:18.320Z,14.80
2022-12-04T10:52:47.345Z,13.10
2022-12-04T10:55:15.933Z,13.67
2022-12-04T10:57:47.766Z,13.00
2022-12-04T11:00:29.962Z,13.20
2022-12-04T11:03:01.351Z,13.13
2022-12-04T11:05:33.712Z,11.83
2022-12-04T11:08:05.191Z,10.43
2022-12-04T11:10:38.160Z,11.50
2022-12-04T11:13:17.406Z,11.33
2022-12-04T11:15:48.278Z,12.93
2022-12-04T11:18:21.047Z,11.03
2022-12-04T11:20:55.976Z,9.93
2022-12-04T11:23:25.133Z,12.30
2022-12-04T11:26:03.723Z,14.07
2022-12-04T11:28:43.781Z,12.90
2022-12-04T11:31:19.647Z,10.63
2022-12-04T11:33:51.563Z,11.20
2022-12-04T11:36:23.751Z,10.33
2022-12-04T11:38:53.207Z,11.73
2022-12-04T11:41:30.654Z,11.37
2022-12-04T11:44:01.146Z,11.07
2022-12-04T11:46:32.670Z,10.80
2022-12-04T11:49:03.025Z,10.53
2022-12-04T11:51:46.298Z,12.23
2022-12-04T11:54:28.559Z,13.23
2022-12-04T11:57:11.287Z,12.40
2022-12-04T12:00:13.104Z,11.03
2022-12-04T12:03:06.129Z,11.57
2022-12-04T12:06:18.216Z,11.60
2022-12-04T12:09:13.534Z,10.90
2022-12-04T12:11:50.768Z,10.90
2022-12-04T12:14:27.124Z,11.03
2022-12-04T12:17:11.271Z,11.07
2022-12-04T12:19:59.378Z,12.70
2022-12-04T12:22:59.567Z,11.67
2022-12-04T12:25:34.848Z,11.13
2022-12-04T12:28:24.779Z,13.97
2022-12-04T12:31:14.389Z,15.13
2022-12-04T12:33:53.260Z,12.00
2022-12-04T12:36:25.262Z,14.80
2022-12-04T12:38:58.810Z,12.23
2022-12-04T12:41:32.567Z,14.87
2022-12-04T12:44:06.142Z,11.73
2022-12-04T12:46:40.695Z,13.37
2022-12-04T12:49:17.212Z,11.67
2022-12-04T12:51:50.107Z,11.93
2022-12-04T12:54:31.579Z,10.67
2022-12-04T12:57:07.919Z,11.27
2022-12-04T12:59:38.936Z,11.80
2022-12-04T13:02:15.905Z,11.77
2022-12-04T13:04:49.639Z,13.50
2022-12-04T13:07:31.039Z,13.40
2022-12-04T13:10:05.832Z,12.03
2022-12-04T13:12:43.573Z,13.10
2022-12-04T13:15:16.849Z,11.77
2022-12-04T13:17:46.883Z,13.93
2022-12-04T13:20:23.469Z,12.07
2022-12-04T13:23:11.398Z,11.63
2022-12-04T13:25:52.606Z,11.80
2022-12-04T13:28:43.722Z,12.23
2022-12-04T13:31:26.750Z,13.30
2022-12-04T13:34:28.862Z,11.50
2022-12-04T13:37:35.564Z,12.63
2022-12-04T13:40:30.263Z,11.90
2022-12-04T13:43:24.956Z,10.90
2022-12-04T13:45:56.090Z,11.00
2022-12-04T13:48:36.492Z,12.57
2022-12-04T13:51:37.221Z,13.03
2022-12-04T13:54:29.004Z,13.60
2022-12-04T13:56:59.812Z,13.37
2022-12-04T13:59:40.419Z,13.63
2022-12-04T14:02:29.292Z,13.53
2022-12-04T14:05:01.459Z,12.77
2022-12-04T14:07:33.203Z,13.27
2022-12-04T14:10:05.903Z,11.17
2022-12-04T14:12:38.319Z,12.40
2022-12-04T14:15:10.489Z,13.53
2022-12-04T14:17:40.741Z,13.10
2022-12-04T14:20:23.450Z,12.27
2022-12-04T14:22:52.120Z,14.10
2022-12-04T14:25:36.520Z,14.97
2022-12-04T14:28:25.871Z,15.43
2022-12-04T14:31:15.161Z,14.80
2022-12-04T14:33:49.300Z,14.70
2022-12-04T14:36:24.659Z,13.10
2022-12-04T14:39:03.646Z,15.73
2022-12-04T14:41:33.897Z,14.00
2022-12-04T14:44:02.296Z,14.00
2022-12-04T14:46:43.034Z,19.77
2022-12-04T14:49:28.462Z,14.67
2022-12-04T14:52:08.001Z,17.60
2022-12-04T14:54:46.852Z,15.50
2022-12-04T14:57:38.177Z,13.57
2022-12-04T15:00:16.556Z,13.30
2022-12-04T15:02:47.125Z,11.97
2022-12-04T15:05:21.676Z,13.53
2022-12-04T15:07:52.299Z,10.93
2022-12-04T15:10:42.136Z,10.73
2022-12-04T15:13:16.060Z,12.30
2022-12-04T15:15:47.832Z,12.00
2022-12-04T15:18:18.570Z,14.67
2022-12-04T15:20:58.424Z,14.73
2022-12-04T15:23:32.691Z,12.77
2022-12-04T15:26:03.741Z,14.60
2022-12-04T15:28:37.641Z,11.53
2022-12-04T15:31:12.918Z,12.80
2022-12-04T15:33:43.176Z,11.27
2022-12-04T15:36:18.773Z,10.77
2022-12-04T15:38:50.008Z,11.37
2022-12-04T15:41:32.566Z,11.87
2022-12-04T15:44:02.798Z,9.97
2022-12-04T15:46:35.505Z,11.10
2022-12-04T15:49:14.523Z,9.40
2022-12-04T15:51:43.047Z,10.80
2022-12-04T15:54:17.340Z,9.87
2022-12-04T15:56:45.681Z,8.93
2022-12-04T15:59:19.438Z,9.50
2022-12-04T16:01:47.911Z,11.37
2022-12-04T16:04:24.018Z,10.80
2022-12-04T16:06:53.831Z,9.93
2022-12-04T16:09:24.789Z,10.47
2022-12-04T16:12:02.473Z,11.60
2022-12-04T16:14:32.196Z,11.67
2022-12-04T16:17:06.135Z,11.87
2022-12-04T16:19:37.085Z,14.77
2022-12-04T16:22:13.695Z,21.37
2022-12-04T16:24:42.105Z,17.47
2022-12-04T16:27:14.687Z,12.27
2022-12-04T16:29:45.472Z,18.60
2022-12-04T16:32:15.702Z,18.33
2022-12-04T16:34:44.038Z,16.37
2022-12-04T16:37:14.425Z,16.77
2022-12-04T16:39:42.727Z,16.07
2022-12-04T16:42:17.651Z,15.00
2022-12-04T16:44:47.939Z,25.50
2022-12-04T16:47:16.897Z,24.50
2022-12-04T16:49:50.209Z,18.43
2022-12-04T16:52:18.991Z,16.10
2022-12-04T16:54:47.487Z,14.73
2022-12-04T16:57:15.826Z,14.93
2022-12-04T16:59:44.142Z,15.13
2022-12-04T17:02:21.789Z,13.93
2022-12-04T17:04:54.189Z,14.37
2022-12-04T17:07:25.787Z,14.23
2022-12-04T17:09:54.154Z,15.80
2022-12-04T17:12:22.438Z,14.87
2022-12-04T17:14:50.762Z,19.33
2022-12-04T17:17:20.447Z,18.40
2022-12-04T17:19:48.767Z,15.60
2022-12-04T17:22:20.990Z,19.03
2022-12-04T17:24:55.789Z,20.17
2022-12-04T17:27:25.236Z,21.63
2022-12-04T17:29:53.544Z,18.37
2022-12-04T17:32:23.295Z,18.77
2022-12-04T17:34:54.956Z,17.33
2022-12-04T17:37:23.652Z,19.50
2022-12-04T17:39:51.942Z,16.70
2022-12-04T17:42:20.490Z,18.57
2022-12-04T17:44:48.872Z,17.87
2022-12-04T17:47:17.155Z,20.10
2022-12-04T17:49:46.905Z,20.50
2022-12-04T17:52:15.317Z,16.13
2022-12-04T17:54:43.579Z,15.90
2022-12-04T17:57:11.894Z,16.70
2022-12-04T17:59:41.206Z,16.70
2022-12-04T18:02:11.171Z,15.57
2022-12-04T18:04:39.979Z,15.63
2022-12-04T18:07:10.036Z,13.87
2022-12-04T18:09:38.911Z,16.30
2022-12-04T18:12:07.518Z,13.17
2022-12-04T18:14:37.103Z,14.80
2022-12-04T18:17:05.691Z,12.13
2022-12-04T18:19:34.029Z,14.20
2022-12-04T18:22:02.434Z,18.40
2022-12-04T18:24:32.060Z,21.27
2022-12-04T18:27:00.423Z,22.10
2022-12-04T18:29:28.708Z,20.90
2022-12-04T18:31:57.008Z,20.03
2022-12-04T18:34:25.709Z,17.53
2022-12-04T18:36:54.187Z,17.93
2022-12-04T18:39:25.156Z,16.77
2022-12-04T18:41:57.147Z,18.77
2022-12-04T18:44:26.030Z,21.80
2022-12-04T18:46:54.350Z,21.17
2022-12-04T18:49:22.723Z,20.20
2022-12-04T18:51:51.032Z,19.40
2022-12-04T18:54:22.612Z,18.23
2022-12-04T18:56:51.570Z,17.27
2022-12-04T18:59:23.882Z,16.00
2022-12-04T19:01:53.223Z,17.97
2022-12-04T19:04:24.062Z,19.13
2022-12-04T19:06:54.865Z,22.13
2022-12-04T19:12:15.579Z,25.07
2022-12-04T19:14:45.292Z,34.43
2022-12-04T19:17:15.093Z,34.67
2022-12-04T19:19:43.401Z,29.50
2022-12-04T19:22:11.671Z,25.30
2022-12-04T19:24:40.000Z,23.50
2022-12-04T19:27:11.708Z,21.30
2022-12-04T19:29:41.450Z,20.03
2022-12-04T19:32:12.794Z,21.07
2022-12-04T19:34:41.674Z,22.57
2022-12-04T19:37:09.916Z,21.00
2022-12-04T19:39:38.553Z,21.27
2022-12-04T19:42:07.520Z,19.87
2022-12-04T19:44:51.472Z,19.53
2022-12-04T19:47:21.197Z,23.40
2022-12-04T19:49:50.364Z,22.67
2022-12-04T19:52:19.201Z,24.70
2022-12-04T19:54:47.559Z,23.67
2022-12-04T19:57:16.025Z,24.10
2022-12-04T19:59:46.535Z,31.83
2022-12-04T20:02:15.480Z,26.43
2022-12-04T20:04:45.423Z,23.90
2022-12-04T20:07:13.900Z,22.70
2022-12-04T20:09:46.008Z,25.27
2022-12-04T20:12:17.120Z,26.73
2022-12-04T20:14:45.368Z,31.37
2022-12-04T20:17:13.687Z,32.33
2022-12-04T20:19:41.975Z,31.17
2022-12-04T20:22:11.570Z,32.27
2022-12-04T20:24:39.984Z,28.57
2022-12-04T20:27:08.199Z,44.73
2022-12-04T20:29:36.493Z,38.00
2022-12-04T20:32:04.792Z,37.40
2022-12-04T20:34:34.358Z,43.70
2022-12-04T20:37:04.864Z,48.13
2022-12-04T20:39:34.543Z,44.20
2022-12-04T20:42:02.875Z,32.10
2022-12-04T20:44:31.156Z,35.17
2022-12-04T20:47:00.068Z,30.10
2022-12-04T20:49:28.321Z,27.97
2022-12-04T20:51:56.601Z,31.63
2022-12-04T20:54:24.902Z,32.80
2022-12-04T20:56:54.768Z,34.13
2022-12-04T20:59:25.288Z,37.83
2022-12-04T21:01:54.700Z,41.67
2022-12-04T21:04:23.983Z,33.90
2022-12-04T21:06:52.292Z,33.07
2022-12-04T21:09:23.319Z,35.60
2022-12-04T21:11:55.305Z,32.80
2022-12-04T21:14:40.104Z,36.73
2022-12-04T21:17:18.252Z,36.63
2022-12-04T21:19:47.905Z,33.83
2022-12-04T21:22:18.059Z,30.20
2022-12-04T21:24:46.345Z,33.03
2022-12-04T21:27:20.995Z,35.03
2022-12-04T21:29:50.466Z,28.80
2022-12-04T21:32:20.225Z,31.47
2022-12-04T21:34:48.591Z,30.50
2022-12-04T21:37:17.045Z,30.03
2022-12-04T21:39:45.415Z,31.57
2022-12-04T21:42:34.513Z,29.83
2022-12-04T21:45:06.633Z,28.20
2022-12-04T21:47:36.315Z,26.03
2022-12-04T21:50:05.365Z,31.53
2022-12-04T21:52:33.661Z,26.23
2022-12-04T21:55:01.948Z,29.53
2022-12-04T21:57:31.599Z,27.83
2022-12-04T22:00:00.034Z,26.47
2022-12-04T22:02:28.683Z,24.13
2022-12-04T22:04:57.015Z,29.00
2022-12-04T22:07:25.412Z,28.17
2022-12-04T22:09:53.756Z,28.47
2022-12-04T22:15:12.626Z,27.03
2022-12-04T22:17:41.408Z,26.30
2022-12-04T22:20:10.913Z,25.10
2022-12-04T22:22:39.190Z,23.83
2022-12-04T22:25:08.400Z,24.20
2022-12-04T22:27:36.665Z,23.40
2022-12-04T22:30:07.861Z,26.23
2022-12-04T22:32:37.682Z,28.33
2022-12-04T22:35:06.922Z,22.33
2022-12-04T22:37:37.472Z,23.57
2022-12-04T22:40:10.172Z,23.27
2022-12-04T22:42:38.384Z,21.03
2022-12-04T22:45:07.836Z,24.33
2022-12-04T22:47:37.680Z,21.00
2022-12-04T22:50:07.838Z,24.23
2022-12-04T22:52:36.151Z,24.47
2022-12-04T22:55:04.728Z,19.67
2022-12-04T22:57:34.221Z,21.77
2022-12-04T23:00:02.590Z,20.83
2022-12-04T23:02:30.875Z,21.63
2022-12-04T23:05:00.591Z,19.97
2022-12-04T23:07:28.941Z,21.87
2022-12-04T23:09:57.585Z,22.17
2022-12-04T23:12:27.593Z,24.13
2022-12-04T23:14:55.833Z,20.10
2022-12-04T23:17:24.199Z,22.63
2022-12-04T23:19:52.475Z,24.17
2022-12-04T23:22:22.088Z,19.40
2022-12-04T23:24:50.301Z,20.37
2022-12-04T23:27:18.580Z,21.40
2022-12-04T23:29:54.204Z,23.87
2022-12-04T23:32:22.464Z,22.57
2022-12-04T23:34:52.991Z,21.77
2022-12-04T23:37:22.704Z,20.80
2022-12-04T23:39:50.951Z,18.43
2022-12-04T23:42:19.182Z,17.67
2022-12-04T23:44:47.467Z,20.53
2022-12-04T23:47:15.740Z,19.33
2022-12-04T23:49:44.133Z,17.53
2022-12-04T23:52:12.382Z,19.47
2022-12-04T23:54:42.011Z,18.97
2022-12-04T23:57:10.287Z,19.17
2022-12-04T23:59:38.716Z,19.63
